Time;durP1;ratioP1;P1;durP2;ratioP2;P2;SDS_P1;SDS_P2;PMS_P1;PMS_P2;Temp;Humidity;BMP_temperature;BMP_pressure;BME280_temperature;BME280_humidity;BME280_pressure;Samples;Min_cycle;Max_cycle;Signal;HPM_P1;HPM_P2
2023/08/22 00:00:58;;;;;;;12.20;5.40;;;;;;;-142.75;100.00;76385.25;5028455;28;20026;-62
2023/08/22 00:03:23;;;;;;;11.55;5.78;;;;;;;-142.75;100.00;76397.06;5027942;28;20025;-62
2023/08/22 00:05:49;;;;;;;11.63;5.47;;;;;;;-142.75;100.00;76381.31;5028064;28;20035;-62
2023/08/22 00:08:14;;;;;;;11.23;5.72;;;;;;;-142.75;100.00;76389.19;5027942;28;20013;-58
2023/08/22 00:10:39;;;;;;;9.95;5.40;;;;;;;-142.75;100.00;76393.13;5028263;28;21333;-62
2023/08/22 00:13:06;;;;;;;9.65;6.00;;;;;;;-142.75;100.00;76408.88;5027496;28;20366;-62
2023/08/22 00:15:31;;;;;;;9.90;5.47;;;;;;;-142.75;100.00;76408.88;5027612;28;20419;-62
2023/08/22 00:17:57;;;;;;;11.35;5.68;;;;;;;-142.75;100.00;76389.19;5027551;28;20025;-62
2023/08/22 00:20:23;;;;;;;12.10;5.88;;;;;;;-142.75;100.00;76397.06;5027701;28;20064;-62
2023/08/22 00:22:49;;;;;;;10.25;5.72;;;;;;;-142.75;100.00;76404.94;5027683;28;20056;-62
2023/08/22 00:25:14;;;;;;;10.07;5.38;;;;;;;-142.75;100.00;76395.09;5027258;28;20116;-60
2023/08/22 00:27:39;;;;;;;9.13;4.10;;;;;;;-142.75;100.00;76393.13;5027623;28;20092;-62
2023/08/22 00:30:06;;;;;;;10.90;4.75;;;;;;;-142.75;100.00;76402.97;5027795;28;20032;-61
2023/08/22 00:32:31;;;;;;;8.02;4.97;;;;;;;-142.75;100.00;76401.00;5027253;28;20025;-62
2023/08/22 00:34:57;;;;;;;7.18;4.32;;;;;;;-142.75;100.00;76401.00;5027279;28;20036;-62
2023/08/22 00:37:22;;;;;;;9.13;4.40;;;;;;;-142.75;100.00;76402.97;5027177;28;20028;-62
2023/08/22 00:39:48;;;;;;;8.25;4.90;;;;;;;-142.75;100.00;76397.06;5027210;28;20037;-62
2023/08/22 00:42:13;;;;;;;8.18;4.50;;;;;;;-142.75;100.00;76408.88;5027566;28;20025;-62
2023/08/22 00:44:38;;;;;;;8.30;3.83;;;;;;;-142.75;100.00;76410.84;5026962;28;20035;-62
2023/08/22 00:47:04;;;;;;;8.10;4.35;;;;;;;-142.75;100.00;76406.91;5026747;28;20026;-62
2023/08/22 00:49:31;;;;;;;6.50;4.50;;;;;;;-142.75;100.00;76408.88;5027141;28;20392;-62
2023/08/22 00:51:59;;;;;;;7.10;4.10;;;;;;;-142.75;100.00;76414.78;5027043;28;20029;-62
2023/08/22 00:54:26;;;;;;;6.47;3.92;;;;;;;-142.75;100.00;76414.78;5026793;28;20029;-62
2023/08/22 00:56:52;;;;;;;7.95;3.97;;;;;;;-142.75;100.00;76414.78;5025716;28;20033;-62
2023/08/22 00:59:18;;;;;;;6.07;3.78;;;;;;;-142.75;100.00;76420.69;5022721;28;20037;-63
2023/08/22 01:01:44;;;;;;;11.00;4.15;;;;;;;-142.75;100.00;76416.75;5027498;28;20033;-62
2023/08/22 01:04:09;;;;;;;6.30;3.95;;;;;;;-142.75;100.00;76414.78;5026942;28;20025;-62
2023/08/22 01:07:12;;;;;;;6.72;3.65;;;;;;;-142.75;100.00;76401.00;5026911;28;20537;-62
2023/08/22 01:09:44;;;;;;;10.63;3.50;;;;;;;-142.75;100.00;76402.97;5025392;28;20501;-62
2023/08/22 01:12:33;;;;;;;6.88;3.60;;;;;;;-142.75;100.00;76385.25;5026935;28;20017;-61
2023/08/22 01:15:18;;;;;;;8.40;3.17;;;;;;;-142.75;100.00;76373.44;5026388;28;20025;-61
2023/08/22 01:17:43;;;;;;;7.43;3.45;;;;;;;-142.75;100.00;76387.22;5024371;28;20029;-62
2023/08/22 01:20:12;;;;;;;7.95;2.90;;;;;;;-142.75;100.00;76385.25;5023832;28;20121;-61
2023/08/22 01:22:41;;;;;;;5.32;3.28;;;;;;;-142.75;100.00;76391.16;5026098;28;20028;-62
2023/08/22 01:25:08;;;;;;;6.22;3.33;;;;;;;-142.75;100.00;76397.06;5024852;28;20473;-61
2023/08/22 01:27:43;;;;;;;7.65;3.50;;;;;;;-142.75;100.00;76408.88;5026433;28;20575;-62
2023/08/22 01:30:17;;;;;;;6.35;3.15;;;;;;;-142.75;100.00;76428.56;5026803;28;20505;-61
2023/08/22 01:32:48;;;;;;;5.25;2.70;;;;;;;-142.75;100.00;76422.66;5026516;28;20045;-61
2023/08/22 01:35:21;;;;;;;5.15;2.92;;;;;;;-142.75;100.00;76432.50;5026260;28;20121;-63
2023/08/22 01:37:47;;;;;;;9.35;2.40;;;;;;;-142.75;100.00;76446.28;5026235;28;20036;-62
2023/08/22 01:40:13;;;;;;;5.00;2.58;;;;;;;-142.75;100.00;76452.19;5026373;28;20021;-61
2023/08/22 01:42:38;;;;;;;4.72;2.38;;;;;;;-142.75;100.00;76458.09;5025801;28;20067;-61
2023/08/22 01:45:04;;;;;;;5.38;2.15;;;;;;;-142.75;100.00;76460.06;5025827;28;20053;-62
2023/08/22 01:47:30;;;;;;;4.40;2.20;;;;;;;-142.75;100.00;76464.00;5026182;28;20544;-61
2023/08/22 01:49:55;;;;;;;5.85;2.40;;;;;;;-142.75;100.00;76465.97;5025968;28;20035;-61
2023/08/22 01:52:20;;;;;;;9.00;2.22;;;;;;;-142.75;100.00;76465.97;5045918;28;20024;-62
2023/08/22 01:54:48;;;;;;;4.30;1.88;;;;;;;-142.75;100.00;76465.97;5045388;28;20032;-62
2023/08/22 01:57:17;;;;;;;6.70;2.03;;;;;;;-142.75;100.00;76473.84;5045552;28;20435;-62
2023/08/22 01:59:42;;;;;;;5.18;2.17;;;;;;;-142.75;100.00;76475.81;5045463;28;20020;-62
2023/08/22 02:02:07;;;;;;;8.60;2.38;;;;;;;-142.75;100.00;76475.81;5045755;28;20074;-62
2023/08/22 02:04:33;;;;;;;4.43;2.30;;;;;;;-142.75;100.00;76475.81;5045325;28;20051;-62
2023/08/22 02:06:58;;;;;;;3.63;1.70;;;;;;;-142.75;100.00;76475.81;5045414;28;20067;-62
2023/08/22 02:09:23;;;;;;;4.60;1.88;;;;;;;-142.75;100.00;76477.78;5045347;28;20131;-62
2023/08/22 02:11:49;;;;;;;4.18;1.48;;;;;;;-142.75;100.00;76477.78;5045155;28;20465;-62
2023/08/22 02:14:14;;;;;;;3.72;2.20;;;;;;;-142.75;100.00;76477.78;5045283;28;20564;-63
2023/08/22 02:16:39;;;;;;;7.55;1.92;;;;;;;-142.75;100.00;76469.91;5045652;28;20057;-62
2023/08/22 02:19:05;;;;;;;5.07;2.15;;;;;;;-142.75;100.00;76471.88;5045177;28;20024;-62
2023/08/22 02:21:31;;;;;;;4.38;1.90;;;;;;;-142.75;100.00;76471.88;5045629;28;20108;-62
2023/08/22 02:23:56;;;;;;;5.63;1.77;;;;;;;-142.75;100.00;76479.75;5043583;28;20021;-62
2023/08/22 02:26:21;;;;;;;6.82;3.13;;;;;;;-142.75;100.00;76479.75;5045196;28;20025;-62
2023/08/22 02:28:47;;;;;;;6.43;2.33;;;;;;;-142.75;100.00;76485.66;5045458;28;20064;-62
2023/08/22 02:31:12;;;;;;;8.15;2.60;;;;;;;-142.75;100.00;76483.69;5045722;28;20029;-62
2023/08/22 02:33:38;;;;;;;5.85;2.53;;;;;;;-142.75;100.00;76483.69;5044223;28;20025;-62
2023/08/22 02:36:03;;;;;;;3.85;2.20;;;;;;;-142.75;100.00;76475.81;5045221;28;20152;-62
2023/08/22 02:38:29;;;;;;;4.75;2.05;;;;;;;-142.75;100.00;76473.84;5045076;28;20377;-63
2023/08/22 02:40:54;;;;;;;6.22;2.13;;;;;;;-142.75;100.00;76469.91;5044554;28;20021;-62
2023/08/22 02:43:19;;;;;;;5.57;2.78;;;;;;;-142.75;100.00;76477.78;5023840;28;20033;-62
2023/08/22 02:45:45;;;;;;;7.22;3.65;;;;;;;-142.75;100.00;76464.00;5025022;28;20022;-58
2023/08/22 02:48:11;;;;;;;6.28;3.63;;;;;;;-142.75;100.00;76456.13;5025373;28;20032;-63
2023/08/22 02:50:36;;;;;;;7.25;3.92;;;;;;;-142.75;100.00;76446.28;5025034;28;20026;-63
2023/08/22 02:53:02;;;;;;;9.88;3.55;;;;;;;-142.75;100.00;76444.31;5025335;28;20026;-62
2023/08/22 02:55:28;;;;;;;6.10;3.05;;;;;;;-142.75;100.00;76440.38;5024784;28;20025;-63
2023/08/22 02:57:53;;;;;;;9.52;3.20;;;;;;;-142.75;100.00;76444.31;5025040;28;20142;-62
2023/08/22 03:00:18;;;;;;;7.68;3.20;;;;;;;-142.75;100.00;76446.28;5025275;28;20022;-62
2023/08/22 03:02:44;;;;;;;6.45;3.00;;;;;;;-142.75;100.00;76444.31;5025353;28;20045;-62
2023/08/22 03:05:13;;;;;;;8.55;4.40;;;;;;;-142.75;100.00;76434.47;5025468;28;20064;-62
2023/08/22 03:07:39;;;;;;;10.10;3.95;;;;;;;-142.75;100.00;76444.31;5041057;28;20020;-62
2023/08/22 03:10:07;;;;;;;7.00;3.55;;;;;;;-142.75;100.00;76440.38;5046102;28;20025;-62
2023/08/22 03:12:33;;;;;;;7.40;3.17;;;;;;;-142.75;100.00;76440.38;5048735;28;20021;-62
2023/08/22 03:14:58;;;;;;;8.80;4.05;;;;;;;-142.75;100.00;76436.44;5032237;28;20087;-62
2023/08/22 03:17:24;;;;;;;12.20;4.72;;;;;;;-142.75;100.00;76444.31;5028949;28;20020;-62
2023/08/22 03:19:49;;;;;;;9.85;4.07;;;;;;;-142.75;100.00;76436.44;5028950;28;20029;-63
2023/08/22 03:22:14;;;;;;;8.93;4.78;;;;;;;-142.75;100.00;76426.59;5028982;28;20105;-62
2023/08/22 03:24:40;;;;;;;10.20;4.75;;;;;;;-142.75;100.00;76428.56;5028524;28;20039;-62
2023/08/22 03:27:05;;;;;;;8.45;3.78;;;;;;;-142.75;100.00;76430.53;5028838;28;20053;-63
2023/08/22 03:29:30;;;;;;;8.10;4.13;;;;;;;-142.75;100.00;76428.56;5028625;28;20037;-62
2023/08/22 03:31:58;;;;;;;7.15;4.43;;;;;;;-142.75;100.00;76432.50;5028857;28;20449;-62
2023/08/22 03:34:23;;;;;;;10.45;3.67;;;;;;;-142.75;100.00;76426.59;5028317;28;20028;-62
2023/08/22 03:36:48;;;;;;;11.10;4.47;;;;;;;-142.75;100.00;76420.69;5028545;28;20100;-62
2023/08/22 03:39:14;;;;;;;10.10;4.72;;;;;;;-142.75;100.00;76422.66;5028494;28;20124;-62
2023/08/22 03:41:39;;;;;;;9.52;4.28;;;;;;;-142.75;100.00;76422.66;5028811;28;20052;-63
2023/08/22 03:44:05;;;;;;;9.27;4.28;;;;;;;-142.75;100.00;76432.50;5028329;28;20024;-62
2023/08/22 03:46:30;;;;;;;8.35;3.45;;;;;;;-142.75;100.00;76452.19;5028183;28;20597;-62
2023/08/22 03:48:55;;;;;;;8.00;3.47;;;;;;;-142.75;100.00;76454.16;5028369;28;20026;-62
2023/08/22 03:51:21;;;;;;;7.13;3.72;;;;;;;-142.75;100.00;76448.25;5028191;28;20021;-62
2023/08/22 03:53:46;;;;;;;6.40;4.15;;;;;;;-142.75;100.00;76452.19;5028118;28;20100;-61
2023/08/22 03:56:11;;;;;;;7.75;3.53;;;;;;;-142.75;100.00;76464.00;5028238;28;20469;-62
2023/08/22 03:58:37;;;;;;;8.27;3.65;;;;;;;-142.75;100.00;76475.81;5028205;28;20052;-62
2023/08/22 04:01:03;;;;;;;8.55;3.08;;;;;;;-142.75;100.00;76477.78;5028522;28;20025;-62
2023/08/22 04:03:31;;;;;;;7.18;3.38;;;;;;;-142.75;100.00;76477.78;5028033;28;20531;-62
2023/08/22 04:05:58;;;;;;;7.57;3.38;;;;;;;-142.75;100.00;76471.88;5028095;28;20021;-62
2023/08/22 04:08:24;;;;;;;10.07;3.10;;;;;;;-142.75;100.00;76473.84;5027707;28;20088;-62
2023/08/22 04:10:53;;;;;;;8.13;3.22;;;;;;;-142.75;100.00;76467.94;5027753;28;20025;-62
2023/08/22 04:13:19;;;;;;;6.75;3.55;;;;;;;-142.75;100.00;76462.03;5027906;28;20032;-62
2023/08/22 04:15:44;;;;;;;8.55;4.10;;;;;;;-142.75;100.00;76464.00;5024454;28;20022;-62
2023/08/22 04:18:10;;;;;;;6.88;3.95;;;;;;;-142.75;100.00;76456.13;5031577;28;20474;-62
2023/08/22 04:20:35;;;;;;;7.22;4.47;;;;;;;-142.75;100.00;76471.88;5034651;28;20143;-62
2023/08/22 04:23:00;;;;;;;7.97;4.18;;;;;;;-142.75;100.00;76481.72;5037658;28;20568;-62
2023/08/22 04:25:26;;;;;;;9.30;3.80;;;;;;;-142.75;100.00;76483.69;5042548;28;20079;-62
2023/08/22 04:27:51;;;;;;;8.45;3.78;;;;;;;-142.75;100.00;76479.75;5034937;28;20464;-63
2023/08/22 04:30:17;;;;;;;7.68;3.85;;;;;;;-142.75;100.00;76481.72;5047278;28;20032;-62
2023/08/22 04:32:43;;;;;;;7.80;3.85;;;;;;;-142.75;100.00;76475.81;5047243;28;20033;-62
2023/08/22 04:35:08;;;;;;;9.57;3.70;;;;;;;-142.75;100.00;76485.66;5045601;28;20017;-62
2023/08/22 04:37:33;;;;;;;7.90;3.70;;;;;;;-142.75;100.00;76495.50;5044155;28;20502;-62
2023/08/22 04:39:59;;;;;;;11.25;3.35;;;;;;;-142.75;100.00;76495.50;5046732;28;20645;-62
2023/08/22 04:42:24;;;;;;;7.40;3.65;;;;;;;-142.75;100.00;76499.44;5034774;28;20071;-62
2023/08/22 04:44:50;;;;;;;6.82;3.80;;;;;;;-142.75;100.00;76507.31;5042657;28;20025;-63
2023/08/22 04:47:15;;;;;;;7.47;4.30;;;;;;;-142.75;100.00;76495.50;5047221;28;20357;-62
2023/08/22 04:49:41;;;;;;;8.30;3.83;;;;;;;-142.75;100.00;76503.38;5045179;28;20024;-62
2023/08/22 04:52:07;;;;;;;10.18;4.47;;;;;;;-142.75;100.00;76503.38;5047174;28;20020;-63
2023/08/22 04:54:32;;;;;;;9.95;4.80;;;;;;;-142.75;100.00;76495.50;5046887;28;20072;-62
2023/08/22 04:56:58;;;;;;;11.70;4.88;;;;;;;-142.75;100.00;76487.63;5035488;28;20389;-62
2023/08/22 04:59:23;;;;;;;10.13;4.60;;;;;;;-142.75;100.00;76483.69;5031871;28;20021;-62
2023/08/22 05:01:48;;;;;;;9.85;4.55;;;;;;;-142.75;100.00;76479.75;5031173;28;20013;-62
2023/08/22 05:04:16;;;;;;;8.18;4.85;;;;;;;-142.75;100.00;76481.72;5036297;28;20060;-62
2023/08/22 05:06:41;;;;;;;10.05;4.30;;;;;;;-142.75;100.00;76483.69;5035100;28;20104;-62
2023/08/22 05:09:08;;;;;;;9.40;3.95;;;;;;;-142.75;100.00;76479.75;5046311;28;20131;-62
2023/08/22 05:11:33;;;;;;;9.52;5.35;;;;;;;-142.75;100.00;76471.88;5042492;28;20063;-62
2023/08/22 05:13:59;;;;;;;11.25;4.60;;;;;;;-142.75;100.00;76469.91;5030172;28;20021;-62
2023/08/22 05:16:24;;;;;;;9.18;4.50;;;;;;;-142.75;100.00;76464.00;5045995;28;20125;-62
2023/08/22 05:18:49;;;;;;;11.32;5.10;;;;;;;-142.75;100.00;76460.06;5046630;28;20108;-62
2023/08/22 05:21:15;;;;;;;10.38;5.03;;;;;;;-142.75;100.00;76444.31;5046344;28;20009;-63
2023/08/22 05:23:40;;;;;;;7.55;4.30;;;;;;;-142.75;100.00;76416.75;5038381;28;20568;-62
2023/08/22 05:26:05;;;;;;;11.68;4.78;;;;;;;-142.75;100.00;76402.97;5037336;28;20502;-63
2023/08/22 05:28:31;;;;;;;11.45;4.82;;;;;;;-142.75;100.00;76389.19;5031666;28;20017;-63
2023/08/22 05:30:56;;;;;;;10.45;5.30;;;;;;;-142.75;100.00;76373.44;5026923;28;20014;-63
2023/08/22 05:33:21;;;;;;;8.00;5.25;;;;;;;-142.75;100.00;76357.69;5025345;28;20108;-63
2023/08/22 05:35:47;;;;;;;11.45;5.03;;;;;;;-142.75;100.00;76332.13;5026293;28;20072;-62
2023/08/22 05:38:12;;;;;;;7.57;5.13;;;;;;;-142.75;100.00;76355.72;5026404;28;20022;-63
2023/08/22 05:40:37;;;;;;;9.90;4.82;;;;;;;-142.75;100.00;76363.59;5026294;28;20028;-63
2023/08/22 05:43:03;;;;;;;10.35;4.45;;;;;;;-142.75;100.00;76369.50;5026009;28;20053;-63
2023/08/22 05:45:28;;;;;;;12.05;4.65;;;;;;;-142.75;100.00;76377.38;5030692;28;20052;-63
2023/08/22 05:47:54;;;;;;;9.30;4.57;;;;;;;-142.75;100.00;76387.22;5041230;28;20013;-63
2023/08/22 05:50:19;;;;;;;13.00;4.32;;;;;;;-142.75;100.00;76383.28;5032797;28;20369;-63
2023/08/22 05:52:45;;;;;;;9.23;4.10;;;;;;;-142.75;100.00;76397.06;5026317;28;20057;-64
2023/08/22 05:55:10;;;;;;;10.85;5.18;;;;;;;-142.75;100.00;76418.72;5033469;28;20025;-63
2023/08/22 05:57:36;;;;;;;7.07;3.15;;;;;;;-142.75;100.00;76428.56;5039050;28;20017;-63
2023/08/22 06:00:03;;;;;;;7.32;3.72;;;;;;;-142.75;100.00;76426.59;5045708;28;20544;-63
2023/08/22 06:02:28;;;;;;;5.93;3.05;;;;;;;-142.75;100.00;76430.53;5041663;28;20108;-63
2023/08/22 06:04:53;;;;;;;5.95;3.25;;;;;;;-142.75;100.00;76440.38;5036864;28;20104;-64
2023/08/22 06:07:19;;;;;;;8.88;3.67;;;;;;;-142.75;100.00;76397.06;5044537;28;20017;-63
2023/08/22 06:09:44;;;;;;;7.43;3.50;;;;;;;-142.75;100.00;76369.50;5045805;28;20024;-63
2023/08/22 06:12:11;;;;;;;10.18;3.67;;;;;;;-142.75;100.00;76375.41;5045280;28;20020;-63
2023/08/22 06:14:37;;;;;;;7.72;3.35;;;;;;;-142.75;100.00;76373.44;5045156;28;20045;-63
2023/08/22 06:17:03;;;;;;;5.95;2.90;;;;;;;-142.75;100.00;76375.41;5045404;28;20052;-63
2023/08/22 06:19:28;;;;;;;5.45;3.08;;;;;;;-142.75;100.00;76353.78;5035308;28;20049;-63
2023/08/22 06:21:54;;;;;;;7.75;4.10;;;;;;;-142.75;100.00;76332.13;5040760;28;20025;-63
2023/08/22 06:24:19;;;;;;;8.95;3.72;;;;;;;-142.75;100.00;76330.16;5044164;28;20028;-63
2023/08/22 06:26:45;;;;;;;8.57;3.70;;;;;;;-142.75;100.00;76334.09;5045595;28;20067;-62
2023/08/22 06:29:10;;;;;;;7.70;3.10;;;;;;;-142.75;100.00;76318.34;5045136;28;20488;-62
2023/08/22 06:31:36;;;;;;;8.27;3.72;;;;;;;-142.75;100.00;76314.41;5045810;28;20063;-63
2023/08/22 06:34:01;;;;;;;8.90;3.60;;;;;;;-142.75;100.00;76286.84;5044868;28;20495;-62
2023/08/22 06:36:27;;;;;;;9.38;3.75;;;;;;;-142.75;100.00;76286.84;5045163;28;20507;-63
2023/08/22 06:38:53;;;;;;;13.45;4.40;;;;;;;-142.75;100.00;76310.47;5045172;28;20021;-63
2023/08/22 06:41:18;;;;;;;13.18;4.88;;;;;;;-142.75;100.00;76290.78;5045305;28;20031;-63
2023/08/22 06:43:44;;;;;;;11.48;3.78;;;;;;;-142.75;100.00;76253.38;5023563;28;20729;-63
2023/08/22 06:46:09;;;;;;;9.10;3.83;;;;;;;-142.75;100.00;76210.06;5024117;28;20033;-63
2023/08/22 06:48:34;;;;;;;11.27;4.15;;;;;;;-142.75;100.00;76192.38;5027170;28;20215;-63
2023/08/22 06:51:00;;;;;;;7.70;4.10;;;;;;;-142.75;100.00;76194.34;5025074;28;20030;-62
2023/08/22 06:53:25;;;;;;;8.20;4.03;;;;;;;-142.75;100.00;76204.16;5025060;28;20037;-63
2023/08/22 06:55:50;;;;;;;9.70;4.50;;;;;;;-142.75;100.00;76217.94;5024291;28;20025;-63
2023/08/22 06:58:16;;;;;;;9.20;4.03;;;;;;;-142.75;100.00;76210.06;5024761;28;20035;-61
2023/08/22 07:00:43;;;;;;;7.47;4.28;;;;;;;-142.75;100.00;76174.66;5025384;28;20108;-63
2023/08/22 07:03:08;;;;;;;10.77;4.28;;;;;;;-142.75;100.00;76170.72;5024138;28;20025;-63
2023/08/22 07:05:37;;;;;;;11.50;4.25;;;;;;;-142.75;100.00;76158.91;5024627;28;20630;-63
2023/08/22 07:08:03;;;;;;;9.73;4.93;;;;;;;-142.75;100.00;76164.81;5024668;28;20067;-63
2023/08/22 07:10:28;;;;;;;8.85;3.90;;;;;;;-142.75;100.00;76156.94;5024642;28;20112;-63
2023/08/22 07:12:54;;;;;;;10.07;4.38;;;;;;;-142.75;100.00;76141.19;5023422;28;20473;-63
2023/08/22 07:15:19;;;;;;;10.52;4.07;;;;;;;-142.75;100.00;76129.38;5020392;28;20036;-63
2023/08/22 07:17:44;;;;;;;9.70;4.00;;;;;;;-142.75;100.00;76151.03;5023982;28;20057;-63
2023/08/22 07:20:10;;;;;;;9.70;4.63;;;;;;;-142.75;100.00;76158.91;5023222;28;20029;-64
2023/08/22 07:22:35;;;;;;;9.38;4.22;;;;;;;-142.75;100.00;76149.06;5032057;28;20021;-62
2023/08/22 07:25:01;;;;;;;7.50;3.90;;;;;;;-142.75;100.00;76166.78;5031218;28;20075;-63
2023/08/22 07:27:26;;;;;;;11.63;3.80;;;;;;;-142.75;100.00;76158.91;5032904;28;20045;-63
2023/08/22 07:29:52;;;;;;;10.23;4.50;;;;;;;-142.75;100.00;76196.31;5038647;28;20499;-63
2023/08/22 07:32:20;;;;;;;9.82;4.05;;;;;;;-142.75;100.00;76192.38;5045004;28;20059;-63
2023/08/22 07:34:47;;;;;;;11.70;4.40;;;;;;;-142.75;100.00;76178.59;5025444;28;20035;-61
2023/08/22 07:37:13;;;;;;;10.95;4.40;;;;;;;-142.75;100.00;76208.09;5023698;28;20034;-63
2023/08/22 07:39:38;;;;;;;12.32;4.63;;;;;;;-142.75;100.00;76215.97;5024127;28;20029;-62
2023/08/22 07:42:04;;;;;;;9.68;4.18;;;;;;;-142.75;100.00;76231.72;5023603;28;20032;-63
2023/08/22 07:44:30;;;;;;;8.32;4.50;;;;;;;-142.75;100.00;76235.66;5023889;28;20079;-62
2023/08/22 07:46:55;;;;;;;9.48;4.40;;;;;;;-142.75;100.00;76241.56;5023554;28;20049;-63
2023/08/22 07:49:21;;;;;;;12.27;4.30;;;;;;;-142.75;100.00;76243.53;5025721;28;20483;-63
2023/08/22 07:51:46;;;;;;;11.82;4.68;;;;;;;-142.75;100.00;76243.53;5035403;28;20029;-63
2023/08/22 07:54:11;;;;;;;10.82;4.90;;;;;;;-142.75;100.00;76245.50;5044436;28;20025;-64
2023/08/22 07:56:37;;;;;;;9.68;4.70;;;;;;;-142.75;100.00;76247.47;5042801;28;20040;-64
2023/08/22 07:59:02;;;;;;;8.52;4.50;;;;;;;-142.75;100.00;76227.78;5027932;28;20065;-64
2023/08/22 08:01:28;;;;;;;13.30;5.18;;;;;;;-142.75;100.00;76243.53;5024696;28;20034;-64
2023/08/22 08:03:53;;;;;;;7.28;4.65;;;;;;;-142.75;100.00;76223.84;5035059;28;20642;-65
2023/08/22 08:06:19;;;;;;;11.93;4.65;;;;;;;-142.75;100.00;76221.88;5037062;28;20021;-64
2023/08/22 08:08:44;;;;;;;9.98;4.65;;;;;;;-142.75;100.00;76219.91;5036585;28;20024;-64
2023/08/22 08:11:09;;;;;;;10.05;4.35;;;;;;;-142.75;100.00;76212.03;5027194;28;20037;-64
2023/08/22 08:13:35;;;;;;;9.63;5.00;;;;;;;-142.75;100.00;76200.25;5028347;28;20193;-63
2023/08/22 08:16:00;;;;;;;11.55;4.32;;;;;;;-142.75;100.00;76192.38;5024613;28;20029;-64
2023/08/22 08:18:26;;;;;;;13.05;5.05;;;;;;;-142.75;100.00;76196.31;5020436;28;20044;-64
2023/08/22 08:20:51;;;;;;;13.05;4.65;;;;;;;-142.75;100.00;76178.59;5025571;28;20443;-64
2023/08/22 08:23:17;;;;;;;13.05;4.90;;;;;;;-142.75;100.00;76172.69;5030151;28;20113;-63
2023/08/22 08:25:43;;;;;;;9.65;4.32;;;;;;;-142.75;100.00;76164.81;5027514;28;20418;-63
2023/08/22 08:28:09;;;;;;;8.88;4.50;;;;;;;-142.75;100.00;76164.81;5025733;28;20108;-63
2023/08/22 08:30:34;;;;;;;10.43;4.80;;;;;;;-142.75;100.00;76147.09;5027147;28;20234;-64
2023/08/22 08:33:03;;;;;;;12.40;5.53;;;;;;;-142.75;100.00;76139.22;5027400;28;20025;-63
2023/08/22 08:35:28;;;;;;;11.40;6.07;;;;;;;-142.75;100.00;76156.94;5026684;28;20480;-63
2023/08/22 08:37:54;;;;;;;9.32;6.25;;;;;;;-142.75;100.00;76168.75;5026883;28;20040;-63
2023/08/22 08:40:19;;;;;;;13.73;6.10;;;;;;;-142.75;100.00;76145.13;5025319;28;20026;-63
2023/08/22 08:42:45;;;;;;;12.25;5.43;;;;;;;-142.75;100.00;76127.41;5028353;28;20032;-63
2023/08/22 08:45:13;;;;;;;14.60;6.50;;;;;;;-142.75;100.00;76164.81;5021432;28;20033;-63
2023/08/22 08:47:39;;;;;;;9.82;5.47;;;;;;;-142.75;100.00;76154.97;5028540;28;20034;-62
2023/08/22 08:50:08;;;;;;;9.25;6.68;;;;;;;-142.75;100.00;76117.56;5030825;28;20047;-64
2023/08/22 08:52:34;;;;;;;13.90;6.07;;;;;;;-142.75;100.00;76113.63;5027509;28;20025;-64
2023/08/22 08:55:00;;;;;;;10.35;5.35;;;;;;;-142.75;100.00;76113.63;5026325;28;20025;-64
2023/08/22 08:57:29;;;;;;;10.27;6.07;;;;;;;-142.75;100.00;76109.69;5026963;28;20029;-64
2023/08/22 08:59:54;;;;;;;12.57;5.22;;;;;;;-142.75;100.00;76099.84;5026556;28;20029;-64
2023/08/22 09:02:20;;;;;;;8.32;4.93;;;;;;;-142.75;100.00;76072.31;5034947;28;20047;-64
2023/08/22 09:04:45;;;;;;;10.93;5.45;;;;;;;-142.75;100.00;76091.97;5038281;28;20024;-63
2023/08/22 09:07:11;;;;;;;11.40;4.82;;;;;;;-142.75;100.00;76107.72;5046032;28;20025;-63
2023/08/22 09:09:37;;;;;;;9.30;5.05;;;;;;;-142.75;100.00;76097.88;5046510;28;20024;-64
2023/08/22 09:12:07;;;;;;;8.25;5.05;;;;;;;-142.75;100.00;76097.88;5041555;28;20043;-64
2023/08/22 09:14:33;;;;;;;8.23;4.32;;;;;;;-142.75;100.00;76088.03;5036935;28;20027;-64
2023/08/22 09:17:02;;;;;;;7.03;4.10;;;;;;;-142.75;100.00;76080.16;5046024;28;20029;-64
2023/08/22 09:19:34;;;;;;;13.70;4.60;;;;;;;-142.75;100.00;76074.25;5046635;28;20025;-64
2023/08/22 09:22:03;;;;;;;9.50;4.00;;;;;;;-142.75;100.00;76054.59;5046374;28;20075;-64
2023/08/22 09:24:30;;;;;;;5.85;3.50;;;;;;;-142.75;100.00;76054.59;5046256;28;20032;-64
2023/08/22 09:26:56;;;;;;;7.05;3.50;;;;;;;-142.75;100.00;76056.56;5046203;28;20021;-63
2023/08/22 09:29:29;;;;;;;5.82;3.78;;;;;;;-142.75;100.00;76056.56;5046062;28;20024;-64
2023/08/22 09:32:02;;;;;;;6.20;3.00;;;;;;;-142.75;100.00;76054.59;5046142;28;20028;-63
2023/08/22 09:34:27;;;;;;;8.25;2.38;;;;;;;-142.75;100.00;76072.31;5033238;28;20152;-64
2023/08/22 09:36:56;;;;;;;6.50;2.25;;;;;;;-142.75;100.00;76066.41;5045840;28;20040;-64
2023/08/22 09:39:23;;;;;;;6.85;1.70;;;;;;;-142.75;100.00;76044.75;5045695;28;20056;-64
2023/08/22 09:41:58;;;;;;;6.53;1.60;;;;;;;-142.75;100.00;76046.72;5045496;28;20025;-63
2023/08/22 09:44:28;;;;;;;4.38;1.58;;;;;;;-142.75;100.00;76044.75;5027762;28;20040;-63
2023/08/22 09:46:55;;;;;;;5.40;1.67;;;;;;;-142.75;100.00;76046.72;5026726;28;20029;-63
2023/08/22 09:49:21;;;;;;;5.57;1.83;;;;;;;-142.75;100.00;76027.03;5037630;28;20031;-64
2023/08/22 09:51:48;;;;;;;6.57;1.90;;;;;;;-142.75;100.00;76030.97;5046238;28;20024;-61
2023/08/22 09:54:14;;;;;;;6.28;1.67;;;;;;;-142.75;100.00;76027.03;5046280;28;20029;-64
2023/08/22 09:56:42;;;;;;;6.90;1.60;;;;;;;-142.75;100.00;76048.69;5038020;28;20017;-64
2023/08/22 09:59:08;;;;;;;6.47;1.52;;;;;;;-142.75;100.00;76062.47;5026521;28;20083;-63
2023/08/22 10:01:40;;;;;;;6.47;1.38;;;;;;;-142.75;100.00;76038.84;5025120;28;20025;-63
2023/08/22 10:04:07;;;;;;;5.55;1.40;;;;;;;-142.75;100.00;76040.81;5025618;28;20044;-63
2023/08/22 10:06:34;;;;;;;6.93;1.20;;;;;;;-142.75;100.00;76042.78;5026267;28;20029;-63
2023/08/22 10:09:07;;;;;;;6.35;1.98;;;;;;;-142.75;100.00;76038.84;5025772;28;20021;-64
2023/08/22 10:11:36;;;;;;;8.73;1.15;;;;;;;-142.75;100.00;76038.84;5027192;28;20033;-63
2023/08/22 10:14:03;;;;;;;4.15;1.10;;;;;;;-142.75;100.00;76015.22;5025630;28;20033;-64
2023/08/22 10:16:29;;;;;;;3.70;1.27;;;;;;;-142.75;100.00;76032.94;5026146;28;20408;-63
2023/08/22 10:19:02;;;;;;;3.40;1.00;;;;;;;-142.75;100.00;76029.00;5025799;28;20378;-64
2023/08/22 10:21:32;;;;;;;5.38;1.17;;;;;;;-142.75;100.00;76036.88;5026252;28;20049;-64
2023/08/22 10:23:58;;;;;;;5.95;1.30;;;;;;;-142.75;100.00;76044.75;5025997;28;20025;-64
2023/08/22 10:26:46;;;;;;;3.30;1.25;;;;;;;-142.75;100.00;76036.88;5026104;28;20025;-64
2023/08/22 10:29:15;;;;;;;3.33;1.23;;;;;;;-142.75;100.00;76048.69;5026292;28;20021;-65
2023/08/22 10:31:59;;;;;;;6.15;2.40;;;;;;;-142.75;100.00;76034.91;5025903;28;20030;-63
2023/08/22 10:34:25;;;;;;;5.22;1.58;;;;;;;-142.75;100.00;76027.03;5024870;28;20113;-63
2023/08/22 10:36:59;;;;;;;5.93;1.23;;;;;;;-142.75;100.00;76019.16;5023329;28;20112;-63
2023/08/22 10:39:38;;;;;;;4.03;1.00;;;;;;;-142.75;100.00;76042.78;5024696;28;20071;-63
2023/08/22 10:42:04;;;;;;;7.95;1.80;;;;;;;-142.75;100.00;76048.69;5025062;28;20032;-63
2023/08/22 10:44:30;;;;;;;4.32;1.48;;;;;;;-142.75;100.00;76046.72;5025285;28;20021;-63
2023/08/22 10:47:14;;;;;;;4.20;1.48;;;;;;;-142.75;100.00;76038.84;5025945;28;20042;-63
2023/08/22 10:49:39;;;;;;;5.05;1.15;;;;;;;-142.75;100.00;76036.88;5026653;28;20422;-63
2023/08/22 10:52:06;;;;;;;4.43;1.15;;;;;;;-142.75;100.00;76019.16;5025068;28;20056;-63
2023/08/22 10:54:50;;;;;;;2.80;1.20;;;;;;;-142.75;100.00;76023.09;5023904;28;20686;-63
2023/08/22 10:57:16;;;;;;;6.03;1.70;;;;;;;-142.75;100.00;76058.53;5024521;28;20037;-62
2023/08/22 11:00:07;;;;;;;5.35;1.27;;;;;;;-142.75;100.00;76029.00;5023592;28;20032;-63
2023/08/22 11:02:34;;;;;;;6.28;1.40;;;;;;;-142.75;100.00;76050.66;5023987;28;20492;-64
2023/08/22 11:05:06;;;;;;;6.65;1.20;;;;;;;-142.75;100.00;76060.50;5024935;28;20376;-64